KSGH/SGH METAR and TAF weather

Enter ICAO airport designator
Station Type Date Time Source
KSGH METAR 2019/06/26 19:56 UTC NOAA

KSGH 261956Z AUTO 25008G16KT 10SM SCT055 31/19 A3013 RMK AO2 SLP195 T03060189


Station Type Date Time Source
KSGH Decoded METAR 2019/06/26 19:56 UTC NOAA

Springfield, Springfield-Beckley Municipal Airport, OH, United States (KSGH) 39-50-25N 083-50-24W
Jun 26, 2019 - 03:56 PM EDT / 2019.06.26 1956 UTC
Wind: from the WSW (250 degrees) at 9 MPH (8 KT) gusting to 18 MPH (16 KT):0
Visibility: 10 mile(s):0
Sky conditions: partly cloudy
Temperature: 87.1 F (30.6 C)
Dew Point: 66.0 F (18.9 C)
Relative Humidity: 49%
Pressure (altimeter): 30.13 in. Hg (1020 hPa)
ob: KSGH 261956Z AUTO 25008G16KT 10SM SCT055 31/19 A3013 RMK AO2 SLP195 T03060189
cycle: 20

Station Type Date Time Source
KSGH TAF UTC NOAA

Error!

Example: see airport list